Time;durP1;ratioP1;P1;durP2;ratioP2;P2;SDS_P1;SDS_P2;PMS_P1;PMS_P2;Temp;Humidity;BMP_temperature;BMP_pressure;BME280_temperature;BME280_humidity;BME280_pressure;Samples;Min_cycle;Max_cycle;Signal;HPM_P1;HPM_P2
2023/08/02 00:00:56;;;;;;;3.97;1.20;;;16.60;99.90;;;;;;5073025;28;20028;-51
2023/08/02 00:03:22;;;;;;;3.28;1.27;;;16.50;99.90;;;;;;5072603;28;20029;-54
2023/08/02 00:05:56;;;;;;;3.35;1.38;;;16.50;99.90;;;;;;5071435;28;20413;-51
2023/08/02 00:08:22;;;;;;;4.00;1.30;;;16.50;99.90;;;;;;5072676;28;20028;-51
2023/08/02 00:10:47;;;;;;;4.90;1.65;;;16.40;99.90;;;;;;5072658;28;20066;-52
2023/08/02 00:13:13;;;;;;;5.07;1.90;;;16.30;99.90;;;;;;5072369;28;20040;-52
2023/08/02 00:15:39;;;;;;;4.72;1.70;;;16.40;99.90;;;;;;5072496;28;20024;-55
2023/08/02 00:18:05;;;;;;;8.45;1.73;;;16.40;99.90;;;;;;5072675;28;20025;-50
2023/08/02 00:20:31;;;;;;;4.90;1.65;;;16.40;99.90;;;;;;5070928;28;20111;-50
2023/08/02 00:22:56;;;;;;;2.78;1.15;;;16.40;99.90;;;;;;5072177;28;20028;-54
2023/08/02 00:25:22;;;;;;;3.55;1.40;;;16.30;99.90;;;;;;5072120;28;20025;-54
2023/08/02 00:27:48;;;;;;;4.90;1.33;;;16.30;99.90;;;;;;5072206;28;20055;-53
2023/08/02 00:30:14;;;;;;;4.43;1.50;;;16.30;99.90;;;;;;5070869;28;20036;-51
2023/08/02 00:32:47;;;;;;;4.55;1.50;;;16.30;99.90;;;;;;5071924;28;20036;-53
2023/08/02 00:35:13;;;;;;;6.68;1.55;;;16.30;99.90;;;;;;5071956;28;20024;-50
2023/08/02 00:37:40;;;;;;;2.85;1.08;;;16.20;99.90;;;;;;5070808;28;20029;-54
2023/08/02 00:40:06;;;;;;;3.25;1.00;;;16.20;99.90;;;;;;5070579;28;20025;-53
2023/08/02 00:42:31;;;;;;;7.50;1.33;;;16.20;99.90;;;;;;5070345;28;20063;-49
2023/08/02 00:44:57;;;;;;;5.75;1.13;;;16.10;99.90;;;;;;5070320;28;20055;-54
2023/08/02 00:47:24;;;;;;;3.95;1.27;;;16.20;99.90;;;;;;5070521;28;20512;-49
2023/08/02 00:49:50;;;;;;;3.80;1.42;;;16.10;99.90;;;;;;5071754;28;20419;-53
2023/08/02 00:52:16;;;;;;;4.18;1.23;;;16.10;99.90;;;;;;5071550;28;20025;-53
2023/08/02 00:54:42;;;;;;;4.00;1.30;;;16.10;99.90;;;;;;5069652;28;20420;-50
2023/08/02 00:57:10;;;;;;;5.15;1.35;;;16.10;99.90;;;;;;5070665;28;20469;-51
2023/08/02 00:59:38;;;;;;;2.72;1.15;;;16.10;99.90;;;;;;5070263;28;20035;-54
2023/08/02 01:02:06;;;;;;;2.47;1.30;;;16.10;99.90;;;;;;5071423;28;20028;-51
2023/08/02 01:04:32;;;;;;;2.83;1.20;;;16.00;99.90;;;;;;5069877;28;20036;-54
2023/08/02 01:07:15;;;;;;;4.22;1.20;;;16.00;99.90;;;;;;5070594;28;20039;-54
2023/08/02 01:09:47;;;;;;;3.80;1.00;;;16.10;99.90;;;;;;5070153;28;20493;-54
2023/08/02 01:12:15;;;;;;;3.08;0.98;;;16.00;99.90;;;;;;5071484;28;20109;-52
2023/08/02 01:14:43;;;;;;;4.25;1.27;;;16.00;99.90;;;;;;5069805;28;20031;-53
2023/08/02 01:17:12;;;;;;;2.90;1.10;;;16.00;99.90;;;;;;5053417;28;20024;-53
2023/08/02 01:19:37;;;;;;;4.75;1.20;;;15.90;99.90;;;;;;5070006;28;20036;-53
2023/08/02 01:22:03;;;;;;;2.95;0.93;;;15.90;99.90;;;;;;5069945;28;20127;-53
2023/08/02 01:24:34;;;;;;;2.67;1.17;;;15.90;99.90;;;;;;5069734;28;20043;-54
2023/08/02 01:27:21;;;;;;;1.30;0.90;;;15.90;99.90;;;;;;5071377;28;20033;-50
2023/08/02 01:29:49;;;;;;;2.53;1.13;;;15.80;99.90;;;;;;5071208;28;20469;-53
2023/08/02 01:32:16;;;;;;;1.95;1.10;;;15.90;99.90;;;;;;5071162;28;20029;-50
2023/08/02 01:34:43;;;;;;;4.38;1.17;;;15.80;99.90;;;;;;5069631;28;20039;-53
2023/08/02 01:37:09;;;;;;;3.22;1.08;;;15.80;99.90;;;;;;5069858;28;20465;-52
2023/08/02 01:39:35;;;;;;;4.07;1.25;;;15.80;99.90;;;;;;5069607;28;20037;-51
2023/08/02 01:42:01;;;;;;;2.13;1.00;;;15.80;99.90;;;;;;5069666;28;20511;-53
2023/08/02 01:44:27;;;;;;;5.82;1.50;;;15.80;99.90;;;;;;5069401;28;20041;-53
2023/08/02 01:46:52;;;;;;;3.47;1.00;;;15.80;99.90;;;;;;5069753;28;20119;-53
2023/08/02 01:49:18;;;;;;;2.65;1.00;;;15.80;99.90;;;;;;5069645;28;20066;-53
2023/08/02 01:51:44;;;;;;;2.80;0.93;;;15.70;99.90;;;;;;5069490;28;20036;-53
2023/08/02 01:54:09;;;;;;;1.92;1.00;;;15.80;99.90;;;;;;5070793;28;20036;-53
2023/08/02 01:56:35;;;;;;;3.95;1.30;;;15.80;99.90;;;;;;5069650;28;20029;-53
2023/08/02 01:59:00;;;;;;;4.88;1.30;;;15.80;99.90;;;;;;5069516;28;20044;-53
2023/08/02 02:01:26;;;;;;;5.57;1.23;;;15.80;99.90;;;;;;5068945;28;20035;-52
2023/08/02 02:03:52;;;;;;;6.78;1.20;;;15.80;99.90;;;;;;5067096;28;20025;-54
2023/08/02 02:06:17;;;;;;;4.07;1.33;;;15.80;99.90;;;;;;5054143;28;20115;-52
2023/08/02 02:08:43;;;;;;;3.00;1.00;;;15.90;99.90;;;;;;5051774;28;20035;-51
2023/08/02 02:11:08;;;;;;;2.60;0.95;;;15.90;99.90;;;;;;5052437;28;20115;-54
2023/08/02 02:13:34;;;;;;;4.88;1.60;;;15.90;99.90;;;;;;5052987;28;20095;-52
2023/08/02 02:16:00;;;;;;;5.28;1.25;;;15.90;99.90;;;;;;5052138;28;20037;-54
2023/08/02 02:18:25;;;;;;;2.92;0.90;;;15.80;99.90;;;;;;5052995;28;20021;-53
2023/08/02 02:20:51;;;;;;;2.60;1.40;;;15.80;99.90;;;;;;5052670;28;20037;-52
2023/08/02 02:23:17;;;;;;;4.45;1.00;;;15.80;99.90;;;;;;5066249;28;20064;-52
2023/08/02 02:25:43;;;;;;;4.88;1.50;;;15.80;99.90;;;;;;5072401;28;20443;-54
2023/08/02 02:28:08;;;;;;;4.20;1.50;;;15.80;99.90;;;;;;5073729;28;20033;-54
2023/08/02 02:30:35;;;;;;;2.50;0.98;;;15.90;99.90;;;;;;5073773;28;20028;-52
2023/08/02 02:33:02;;;;;;;5.47;1.42;;;15.90;99.90;;;;;;5072336;28;20063;-53
2023/08/02 02:35:29;;;;;;;2.97;1.15;;;15.80;99.90;;;;;;5073586;28;20050;-52
2023/08/02 02:37:55;;;;;;;4.25;1.60;;;15.90;99.90;;;;;;5055903;28;20079;-54
2023/08/02 02:40:21;;;;;;;4.22;1.60;;;15.90;99.90;;;;;;5074038;28;20115;-52
2023/08/02 02:42:46;;;;;;;5.63;1.35;;;15.90;99.90;;;;;;5073269;28;20033;-51
2023/08/02 02:45:13;;;;;;;5.15;2.15;;;15.90;99.90;;;;;;5073443;28;20020;-54
2023/08/02 02:47:39;;;;;;;5.18;1.75;;;15.90;99.90;;;;;;5072767;28;20033;-49
2023/08/02 02:50:05;;;;;;;3.88;1.40;;;15.90;99.90;;;;;;5072541;28;20033;-48
2023/08/02 02:52:34;;;;;;;4.03;1.52;;;15.90;99.90;;;;;;5071734;28;20024;-48
2023/08/02 02:54:59;;;;;;;3.70;1.50;;;15.80;99.90;;;;;;5071560;28;20400;-49
2023/08/02 02:57:25;;;;;;;6.85;1.85;;;15.90;99.90;;;;;;5073394;28;20028;-51
2023/08/02 02:59:51;;;;;;;4.05;1.60;;;15.90;99.90;;;;;;5073377;28;20028;-49
2023/08/02 03:02:17;;;;;;;4.85;1.40;;;15.90;99.90;;;;;;5073133;28;20033;-48
2023/08/02 03:04:42;;;;;;;7.60;1.92;;;15.90;99.90;;;;;;5073051;28;20488;-50
2023/08/02 03:07:08;;;;;;;3.33;1.27;;;15.80;99.90;;;;;;5073108;28;20068;-48
2023/08/02 03:09:34;;;;;;;5.47;1.98;;;15.80;99.90;;;;;;5073077;28;20032;-49
2023/08/02 03:11:59;;;;;;;3.92;1.30;;;15.80;99.90;;;;;;5072920;28;20025;-48
2023/08/02 03:14:26;;;;;;;5.40;1.48;;;15.80;99.90;;;;;;5072753;28;20028;-48
2023/08/02 03:16:52;;;;;;;5.72;1.73;;;15.80;99.90;;;;;;5072999;28;20488;-48
2023/08/02 03:19:17;;;;;;;5.75;1.92;;;15.70;99.90;;;;;;5072843;28;20033;-49
2023/08/02 03:21:46;;;;;;;2.78;1.38;;;15.70;99.90;;;;;;5072847;28;20060;-48
2023/08/02 03:24:12;;;;;;;5.45;1.48;;;15.70;99.90;;;;;;5072643;28;20119;-48
2023/08/02 03:26:37;;;;;;;7.47;1.58;;;15.80;99.90;;;;;;5073090;28;20108;-48
2023/08/02 03:29:03;;;;;;;4.53;1.52;;;15.80;99.90;;;;;;5072682;28;20532;-48
2023/08/02 03:31:29;;;;;;;4.22;1.60;;;15.80;99.90;;;;;;5072946;28;20107;-48
2023/08/02 03:33:54;;;;;;;5.10;1.60;;;15.80;99.90;;;;;;5071187;28;20028;-48
2023/08/02 03:36:20;;;;;;;7.40;1.95;;;15.80;99.90;;;;;;5072322;28;20031;-48
2023/08/02 03:38:45;;;;;;;5.97;1.88;;;15.80;99.90;;;;;;5072575;28;20527;-49
2023/08/02 03:41:11;;;;;;;5.22;1.50;;;15.80;99.90;;;;;;5072555;28;20036;-48
2023/08/02 03:43:37;;;;;;;4.32;1.52;;;15.70;99.90;;;;;;5072234;28;20386;-48
2023/08/02 03:46:02;;;;;;;4.95;2.10;;;15.70;99.90;;;;;;5072334;28;20412;-48
2023/08/02 03:48:28;;;;;;;3.88;1.60;;;15.70;99.90;;;;;;5072534;28;20150;-48
2023/08/02 03:50:58;;;;;;;4.47;1.55;;;15.70;99.90;;;;;;5072301;28;20082;-48
2023/08/02 03:53:26;;;;;;;4.57;1.63;;;15.60;99.90;;;;;;5072057;28;20021;-49
2023/08/02 03:55:52;;;;;;;5.68;1.90;;;15.70;99.90;;;;;;5072015;28;20125;-49
2023/08/02 03:58:17;;;;;;;4.65;1.60;;;15.70;99.90;;;;;;5072254;28;20075;-50
2023/08/02 04:00:43;;;;;;;3.40;1.50;;;15.70;99.90;;;;;;5072247;28;20043;-49
2023/08/02 04:03:09;;;;;;;3.40;1.30;;;15.80;99.90;;;;;;5071923;28;20031;-49
2023/08/02 04:05:34;;;;;;;4.35;1.70;;;15.80;99.90;;;;;;5071900;28;20086;-49
2023/08/02 04:08:00;;;;;;;4.45;1.65;;;15.90;99.90;;;;;;5072058;28;20514;-48
2023/08/02 04:10:26;;;;;;;3.78;1.67;;;15.90;99.90;;;;;;5071907;28;20469;-53
2023/08/02 04:12:51;;;;;;;3.90;1.25;;;15.90;99.90;;;;;;5071635;28;20020;-52
2023/08/02 04:15:17;;;;;;;4.22;1.80;;;15.90;99.90;;;;;;5071656;28;20484;-54
2023/08/02 04:17:43;;;;;;;5.38;1.80;;;15.90;99.90;;;;;;5071833;28;20115;-53
2023/08/02 04:20:09;;;;;;;3.95;1.55;;;15.90;99.90;;;;;;5071547;28;20029;-53
2023/08/02 04:22:35;;;;;;;3.03;1.40;;;15.90;99.90;;;;;;5071407;28;20102;-52
2023/08/02 04:25:02;;;;;;;3.33;1.30;;;16.00;99.90;;;;;;5071447;28;20036;-53
2023/08/02 04:27:28;;;;;;;4.65;1.58;;;16.10;99.90;;;;;;5071630;28;20094;-54
2023/08/02 04:29:53;;;;;;;3.85;1.45;;;16.20;99.90;;;;;;5070695;28;20032;-52
2023/08/02 04:32:19;;;;;;;4.13;1.10;;;16.20;99.90;;;;;;5071428;28;20039;-52
2023/08/02 04:34:45;;;;;;;4.25;1.33;;;16.20;99.90;;;;;;5071098;28;20035;-51
2023/08/02 04:37:10;;;;;;;3.17;1.10;;;16.20;99.90;;;;;;5071382;28;20074;-54
2023/08/02 04:39:36;;;;;;;4.85;1.55;;;16.30;99.90;;;;;;5071491;28;20047;-51
2023/08/02 04:42:02;;;;;;;4.75;1.27;;;16.20;99.90;;;;;;5071135;28;20059;-52
2023/08/02 04:44:27;;;;;;;3.58;1.40;;;16.30;99.90;;;;;;5071048;28;20231;-51
2023/08/02 04:46:53;;;;;;;3.85;1.67;;;16.30;99.90;;;;;;5071270;28;20036;-54
2023/08/02 04:49:19;;;;;;;2.58;1.00;;;16.30;99.90;;;;;;5071178;28;20032;-52
2023/08/02 04:51:44;;;;;;;2.97;1.42;;;16.30;99.90;;;;;;5071205;28;20028;-51
2023/08/02 04:54:10;;;;;;;2.75;1.25;;;16.30;99.90;;;;;;5070884;28;20064;-52
2023/08/02 04:56:37;;;;;;;3.15;1.15;;;16.40;99.90;;;;;;5071090;28;20032;-53
2023/08/02 04:59:05;;;;;;;3.65;1.48;;;16.30;99.90;;;;;;5071187;28;20033;-52
2023/08/02 05:01:31;;;;;;;2.45;1.30;;;16.30;99.90;;;;;;5070880;28;20037;-49
2023/08/02 05:03:57;;;;;;;2.75;1.17;;;16.40;99.90;;;;;;5070728;28;20032;-52
2023/08/02 05:06:23;;;;;;;3.22;1.38;;;16.40;99.90;;;;;;5070831;28;20435;-49
2023/08/02 05:08:48;;;;;;;2.85;1.20;;;16.40;99.90;;;;;;5070982;28;20086;-50
2023/08/02 05:11:14;;;;;;;3.03;1.10;;;16.40;99.90;;;;;;5069871;28;20383;-53
2023/08/02 05:13:40;;;;;;;2.00;1.00;;;16.40;99.90;;;;;;5070591;28;20580;-51
2023/08/02 05:16:11;;;;;;;3.70;1.27;;;16.40;99.90;;;;;;5070681;28;20043;-53
2023/08/02 05:18:37;;;;;;;5.55;2.38;;;16.40;99.90;;;;;;5070819;28;20508;-49
2023/08/02 05:21:12;;;;;;;10.43;5.53;;;16.40;99.90;;;;;;5070808;28;20035;-53
2023/08/02 05:23:39;;;;;;;8.73;4.50;;;16.50;99.90;;;;;;5070529;28;20060;-52
2023/08/02 05:26:06;;;;;;;12.18;5.70;;;16.50;99.90;;;;;;5070738;28;20396;-52
2023/08/02 05:28:31;;;;;;;3.42;1.60;;;16.50;99.90;;;;;;5070699;28;20035;-52
2023/08/02 05:30:57;;;;;;;5.15;1.63;;;16.60;99.90;;;;;;5070578;28;20036;-51
2023/08/02 05:33:23;;;;;;;3.25;1.65;;;16.60;99.90;;;;;;5070891;28;20035;-51
2023/08/02 05:35:48;;;;;;;4.75;1.55;;;16.50;99.90;;;;;;5070462;28;20021;-52
2023/08/02 05:38:14;;;;;;;3.95;1.50;;;16.50;99.90;;;;;;5070772;28;20032;-52
2023/08/02 05:40:39;;;;;;;5.07;1.42;;;16.50;99.90;;;;;;5070633;28;20083;-51
2023/08/02 05:43:06;;;;;;;3.08;1.50;;;16.50;99.90;;;;;;5070568;28;20036;-52
2023/08/02 05:45:32;;;;;;;4.00;1.42;;;16.50;99.90;;;;;;5070627;28;20427;-53
2023/08/02 05:47:58;;;;;;;3.60;1.67;;;16.50;99.90;;;;;;5069577;28;20166;-52
2023/08/02 05:50:24;;;;;;;6.63;2.20;;;16.60;99.90;;;;;;5070962;28;20389;-51
2023/08/02 05:52:49;;;;;;;5.07;1.38;;;16.60;99.90;;;;;;5070466;28;20029;-53
2023/08/02 05:55:16;;;;;;;4.63;1.50;;;16.60;99.90;;;;;;5070335;28;20032;-52
2023/08/02 05:57:41;;;;;;;3.30;1.40;;;16.60;99.90;;;;;;5070626;28;20029;-51
2023/08/02 06:00:08;;;;;;;5.53;2.20;;;16.60;99.90;;;;;;5070428;28;20033;-53
2023/08/02 06:02:35;;;;;;;7.72;2.38;;;16.60;99.90;;;;;;5070639;28;20086;-53
2023/08/02 06:05:00;;;;;;;3.90;1.83;;;16.60;99.90;;;;;;5070345;28;20044;-52
2023/08/02 06:07:26;;;;;;;5.85;2.10;;;16.50;99.90;;;;;;5070609;28;20385;-50
2023/08/02 06:09:52;;;;;;;5.53;1.85;;;16.60;99.90;;;;;;5070251;28;20036;-50
2023/08/02 06:12:17;;;;;;;3.63;1.85;;;16.50;99.90;;;;;;5069972;28;20035;-51
2023/08/02 06:14:43;;;;;;;5.88;2.72;;;16.60;99.90;;;;;;5069921;28;20075;-53
2023/08/02 06:17:08;;;;;;;12.50;6.18;;;16.60;99.90;;;;;;5070280;28;20064;-53
2023/08/02 06:19:34;;;;;;;5.68;2.22;;;16.50;99.90;;;;;;5068987;28;20035;-49
2023/08/02 06:21:59;;;;;;;6.20;2.78;;;16.60;99.90;;;;;;5070141;28;20475;-52
2023/08/02 06:24:25;;;;;;;5.40;2.05;;;16.50;99.90;;;;;;5069835;28;20045;-53
2023/08/02 06:26:51;;;;;;;6.72;1.88;;;16.50;99.90;;;;;;5070140;28;20032;-52
2023/08/02 06:29:16;;;;;;;7.43;3.55;;;16.40;99.90;;;;;;5069860;28;20128;-52
2023/08/02 06:31:42;;;;;;;6.72;2.95;;;16.40;99.90;;;;;;5070095;28;20428;-51
2023/08/02 06:34:08;;;;;;;4.45;1.80;;;16.40;99.90;;;;;;5069961;28;20025;-53
2023/08/02 06:36:34;;;;;;;16.13;7.32;;;16.40;99.90;;;;;;5069913;28;20024;-53
2023/08/02 06:38:59;;;;;;;8.98;3.50;;;16.50;99.90;;;;;;5070056;28;20181;-52
2023/08/02 06:41:25;;;;;;;7.30;3.83;;;16.50;99.90;;;;;;5069960;28;20107;-54
2023/08/02 06:43:51;;;;;;;5.65;2.55;;;16.50;99.90;;;;;;5069842;28;20115;-52
2023/08/02 06:46:16;;;;;;;3.88;2.20;;;16.40;99.90;;;;;;5069795;28;20029;-54
2023/08/02 06:48:42;;;;;;;7.55;3.63;;;16.50;99.90;;;;;;5069785;28;20048;-54
2023/08/02 06:51:11;;;;;;;4.43;2.10;;;16.40;99.90;;;;;;5069955;28;20025;-54
2023/08/02 06:53:37;;;;;;;6.20;2.63;;;16.30;99.90;;;;;;5071618;28;20032;-54
2023/08/02 06:56:11;;;;;;;4.75;2.65;;;16.30;99.90;;;;;;5073156;28;20031;-52
2023/08/02 06:58:37;;;;;;;5.07;2.10;;;16.30;99.90;;;;;;5073298;28;20029;-50
2023/08/02 07:01:20;;;;;;;5.18;2.45;;;16.20;99.90;;;;;;5073208;28;20039;-51
2023/08/02 07:03:46;;;;;;;5.15;2.22;;;16.20;99.90;;;;;;5073127;28;20029;-52
2023/08/02 07:06:19;;;;;;;7.18;2.90;;;16.30;99.90;;;;;;5072992;28;20038;-54
2023/08/02 07:08:46;;;;;;;7.93;2.47;;;16.30;99.90;;;;;;5073097;28;20029;-54
2023/08/02 07:11:11;;;;;;;5.25;2.55;;;16.30;99.90;;;;;;5073205;28;20103;-53
2023/08/02 07:13:41;;;;;;;5.55;2.50;;;16.30;99.90;;;;;;5072983;28;20552;-53
2023/08/02 07:16:07;;;;;;;4.97;2.45;;;16.40;99.90;;;;;;5073059;28;20036;-51
2023/08/02 07:18:32;;;;;;;4.22;1.90;;;16.30;99.90;;;;;;5072875;28;20017;-51
2023/08/02 07:21:08;;;;;;;6.00;2.50;;;16.30;99.90;;;;;;5072736;28;20090;-53
2023/08/02 07:23:35;;;;;;;4.05;1.90;;;16.40;99.90;;;;;;5072453;28;20444;-51
2023/08/02 07:26:01;;;;;;;3.35;1.70;;;16.30;99.90;;;;;;5072423;28;20493;-51
2023/08/02 07:28:27;;;;;;;4.55;2.25;;;16.30;99.90;;;;;;5072748;28;20055;-53
2023/08/02 07:30:52;;;;;;;7.07;2.47;;;16.30;99.90;;;;;;5072471;28;20040;-53
2023/08/02 07:33:18;;;;;;;4.40;1.80;;;16.30;99.90;;;;;;5072297;28;20020;-52
2023/08/02 07:35:46;;;;;;;9.95;4.90;;;16.30;99.90;;;;;;5072319;28;20424;-52
2023/08/02 07:38:13;;;;;;;3.83;1.85;;;16.40;99.90;;;;;;5072400;28;20041;-51
2023/08/02 07:40:39;;;;;;;4.97;2.33;;;16.40;99.90;;;;;;5072456;28;20037;-52
2023/08/02 07:43:04;;;;;;;3.13;1.50;;;16.50;99.90;;;;;;5072114;28;20032;-52
2023/08/02 07:45:30;;;;;;;4.88;2.05;;;16.50;99.90;;;;;;5072132;28;20544;-53
2023/08/02 07:47:55;;;;;;;4.00;2.00;;;16.50;99.90;;;;;;5072277;28;20028;-53
2023/08/02 07:50:21;;;;;;;2.80;1.25;;;16.60;99.90;;;;;;5072194;28;20059;-51
2023/08/02 07:52:48;;;;;;;3.88;1.52;;;16.60;99.90;;;;;;5071807;28;20029;-50
2023/08/02 07:55:13;;;;;;;2.63;1.30;;;16.60;99.90;;;;;;5071825;28;20155;-49
2023/08/02 07:57:39;;;;;;;2.25;1.17;;;16.70;99.90;;;;;;5072229;28;20108;-52
2023/08/02 08:00:05;;;;;;;3.88;1.40;;;16.80;99.90;;;;;;5071937;28;20033;-51
2023/08/02 08:02:40;;;;;;;2.20;1.30;;;16.90;99.90;;;;;;5071860;28;20046;-52
2023/08/02 08:05:07;;;;;;;1.42;0.73;;;17.00;99.90;;;;;;5071537;28;20036;-53
2023/08/02 08:07:33;;;;;;;2.70;1.25;;;17.00;99.90;;;;;;5071900;28;20043;-50
2023/08/02 08:09:58;;;;;;;3.60;1.30;;;17.00;99.90;;;;;;5071734;28;20556;-51
2023/08/02 08:12:27;;;;;;;1.90;1.10;;;17.10;99.90;;;;;;5071487;28;20031;-52
2023/08/02 08:14:52;;;;;;;3.55;1.65;;;17.20;99.90;;;;;;5071524;28;20032;-51
2023/08/02 08:17:18;;;;;;;2.33;1.30;;;17.20;99.90;;;;;;5071773;28;20088;-50
2023/08/02 08:19:44;;;;;;;1.83;1.10;;;17.20;99.90;;;;;;5071595;28;20030;-50
2023/08/02 08:22:10;;;;;;;4.40;1.60;;;17.20;99.90;;;;;;5071303;28;20098;-50
2023/08/02 08:24:35;;;;;;;2.03;1.10;;;17.30;99.90;;;;;;5071411;28;20033;-53
2023/08/02 08:27:01;;;;;;;2.58;1.27;;;17.40;99.90;;;;;;5070448;28;20081;-50
2023/08/02 08:29:27;;;;;;;3.20;1.42;;;17.50;99.90;;;;;;5071395;28;20033;-51
2023/08/02 08:31:53;;;;;;;2.60;1.30;;;17.50;99.90;;;;;;5071288;28;20036;-51
2023/08/02 08:34:18;;;;;;;2.35;1.10;;;17.60;99.90;;;;;;5069775;28;20040;-52
2023/08/02 08:36:45;;;;;;;3.88;1.33;;;17.70;99.90;;;;;;5071411;28;20031;-52
2023/08/02 08:39:10;;;;;;;1.95;1.30;;;17.70;99.90;;;;;;5071336;28;20059;-52
2023/08/02 08:41:36;;;;;;;2.63;1.33;;;17.60;99.90;;;;;;5071481;28;20063;-51
2023/08/02 08:44:02;;;;;;;3.28;1.48;;;17.60;99.90;;;;;;5071060;28;20447;-51
2023/08/02 08:46:31;;;;;;;9.20;3.42;;;17.60;99.90;;;;;;5071031;28;20031;-49
2023/08/02 08:48:58;;;;;;;3.22;1.60;;;17.70;99.90;;;;;;5071107;28;20040;-48
2023/08/02 08:51:27;;;;;;;2.38;1.52;;;17.60;99.90;;;;;;5070998;28;20108;-51
2023/08/02 08:53:54;;;;;;;3.17;1.58;;;17.60;99.90;;;;;;5071503;28;20047;-47
2023/08/02 08:56:24;;;;;;;3.25;1.73;;;17.70;99.90;;;;;;5071326;28;20034;-48
2023/08/02 08:58:51;;;;;;;3.95;1.65;;;17.70;99.90;;;;;;5071104;28;20400;-47
2023/08/02 09:01:17;;;;;;;2.25;1.38;;;17.70;99.90;;;;;;5071005;28;20047;-47
2023/08/02 09:03:45;;;;;;;3.88;2.05;;;17.70;99.90;;;;;;5071133;28;20032;-47
2023/08/02 09:06:13;;;;;;;3.65;1.83;;;17.70;99.90;;;;;;5070954;28;20445;-47
2023/08/02 09:08:43;;;;;;;2.72;1.60;;;17.70;99.90;;;;;;5071395;28;20017;-47
2023/08/02 09:11:09;;;;;;;2.97;1.65;;;17.70;99.90;;;;;;5071332;28;20028;-48
2023/08/02 09:13:34;;;;;;;2.55;1.80;;;17.80;99.90;;;;;;5070663;28;20439;-50
2023/08/02 09:16:14;;;;;;;2.83;1.40;;;17.70;99.90;;;;;;5070141;28;20250;-47
2023/08/02 09:18:44;;;;;;;3.50;1.80;;;17.80;99.90;;;;;;5070816;28;20063;-48
2023/08/02 09:21:14;;;;;;;4.07;1.80;;;17.80;99.90;;;;;;5070791;28;20085;-49
2023/08/02 09:23:45;;;;;;;3.15;1.52;;;17.90;99.90;;;;;;5070588;28;20086;-50
2023/08/02 09:26:15;;;;;;;3.80;1.83;;;17.90;99.90;;;;;;5070520;28;20075;-48
2023/08/02 09:28:57;;;;;;;3.13;1.65;;;18.00;99.90;;;;;;5070501;28;20028;-48
2023/08/02 09:31:23;;;;;;;3.45;1.80;;;18.00;99.90;;;;;;5069267;28;20033;-50
2023/08/02 09:33:51;;;;;;;3.17;1.67;;;18.00;99.90;;;;;;5070558;28;20404;-48
2023/08/02 09:36:30;;;;;;;3.17;1.48;;;18.20;99.90;;;;;;5069150;28;20036;-48
2023/08/02 09:39:22;;;;;;;16.65;8.77;;;18.20;99.90;;;;;;5070486;28;20029;-52
2023/08/02 09:41:48;;;;;;;2.28;1.40;;;18.20;99.90;;;;;;5067446;28;20090;-48
2023/08/02 09:44:21;;;;;;;11.50;5.53;;;18.20;99.90;;;;;;5070212;28;20048;-48
2023/08/02 09:46:46;;;;;;;11.85;5.85;;;18.30;99.90;;;;;;5070420;28;20035;-47
2023/08/02 09:49:20;;;;;;;20.48;11.38;;;18.30;99.90;;;;;;5069046;28;20037;-49
2023/08/02 09:51:46;;;;;;;7.25;3.22;;;18.30;99.90;;;;;;5070299;28;20070;-48
2023/08/02 09:54:14;;;;;;;6.50;3.72;;;18.20;99.90;;;;;;5070297;28;20029;-52
2023/08/02 09:56:41;;;;;;;2.78;1.63;;;18.20;99.90;;;;;;5070509;28;20422;-49
2023/08/02 09:59:08;;;;;;;5.90;2.58;;;18.20;99.90;;;;;;5070269;28;20043;-51
2023/08/02 10:01:36;;;;;;;4.30;2.20;;;18.20;99.90;;;;;;5070117;28;20033;-49
2023/08/02 10:04:10;;;;;;;2.22;1.38;;;18.10;99.90;;;;;;5070052;28;20401;-50
2023/08/02 10:06:44;;;;;;;2.95;1.33;;;18.10;99.90;;;;;;5070328;28;20032;-52
2023/08/02 10:09:14;;;;;;;2.65;1.40;;;18.00;99.90;;;;;;5070260;28;20028;-53
2023/08/02 10:12:07;;;;;;;2.67;1.50;;;18.00;99.90;;;;;;5068772;28;20483;-49
2023/08/02 10:14:33;;;;;;;2.78;1.23;;;18.00;99.90;;;;;;5069740;28;20074;-50
2023/08/02 10:17:02;;;;;;;3.78;1.73;;;18.10;99.90;;;;;;5070117;28;20024;-52
2023/08/02 10:19:29;;;;;;;2.08;1.40;;;18.10;99.90;;;;;;5070139;28;20029;-49
2023/08/02 10:21:59;;;;;;;2.35;1.30;;;18.00;99.90;;;;;;5069953;28;20024;-48
2023/08/02 10:24:26;;;;;;;2.78;1.50;;;18.20;99.90;;;;;;5069864;28;20040;-52
2023/08/02 10:26:57;;;;;;;4.20;2.63;;;18.30;99.90;;;;;;5069971;28;20060;-50
2023/08/02 10:29:28;;;;;;;3.33;1.63;;;18.40;99.90;;;;;;5073254;28;20028;-50
2023/08/02 10:31:54;;;;;;;7.50;3.13;;;18.50;99.90;;;;;;5073657;28;20107;-52
2023/08/02 10:34:44;;;;;;;4.18;2.38;;;18.50;99.90;;;;;;5073483;28;20032;-50
2023/08/02 10:37:10;;;;;;;3.33;1.52;;;18.50;99.90;;;;;;5073633;28;20031;-54
2023/08/02 10:39:45;;;;;;;5.70;1.50;;;18.50;99.90;;;;;;5073594;28;20388;-52
2023/08/02 10:42:14;;;;;;;6.60;3.78;;;18.60;99.90;;;;;;5073298;28;20041;-53
2023/08/02 10:44:55;;;;;;;;;;;18.60;99.90;;;;;;5073870;28;20033;-52
2023/08/02 10:47:28;;;;;;;3.53;1.05;;;18.60;99.90;;;;;;5073517;28;20384;-49
2023/08/02 10:49:55;;;;;;;4.15;1.90;;;18.70;99.90;;;;;;5073382;28;20055;-54
2023/08/02 10:52:34;;;;;;;3.58;1.88;;;18.80;99.90;;;;;;5071819;28;20029;-54
2023/08/02 10:55:26;;;;;;;;;;;18.90;99.90;;;;;;5073827;28;20196;-54
2023/08/02 10:57:54;;;;;;;3.75;1.40;;;19.00;99.90;;;;;;5068075;28;19908;-52
2023/08/02 11:00:25;;;;;;;2.08;1.27;;;19.10;99.90;;;;;;5073531;28;20479;-53
2023/08/02 11:02:52;;;;;;;3.53;1.98;;;19.20;99.90;;;;;;5071589;28;20063;-54
2023/08/02 11:05:37;;;;;;;1.33;1.05;;;19.30;99.90;;;;;;5073175;28;20119;-54
2023/08/02 11:08:03;;;;;;;2.08;0.90;;;19.40;99.90;;;;;;5073186;28;20028;-54
2023/08/02 11:10:29;;;;;;;1.63;1.00;;;19.60;99.90;;;;;;5072957;28;20374;-50
2023/08/02 11:12:55;;;;;;;3.42;1.70;;;19.60;99.90;;;;;;5072829;28;20024;-51
2023/08/02 11:15:21;;;;;;;2.67;1.60;;;19.60;99.90;;;;;;5072823;28;20081;-52
2023/08/02 11:17:55;;;;;;;4.15;2.28;;;19.70;99.90;;;;;;5073023;28;20036;-54
2023/08/02 11:20:26;;;;;;;1.50;0.93;;;19.80;99.90;;;;;;5072987;28;20374;-53
2023/08/02 11:22:52;;;;;;;3.00;1.50;;;20.00;99.90;;;;;;5072662;28;20040;-54
2023/08/02 11:25:19;;;;;;;0.88;0.80;;;20.20;99.90;;;;;;5072493;28;20124;-54
2023/08/02 11:27:45;;;;;;;2.45;1.02;;;20.40;99.90;;;;;;5072705;28;20044;-53
2023/08/02 11:30:11;;;;;;;4.72;1.52;;;20.40;99.90;;;;;;5072684;28;20397;-54
2023/08/02 11:32:45;;;;;;;1.50;0.90;;;20.40;99.90;;;;;;5072533;28;20513;-54
2023/08/02 11:35:17;;;;;;;3.30;1.00;;;20.50;99.90;;;;;;5072547;28;20066;-51
2023/08/02 11:37:43;;;;;;;2.13;1.10;;;20.50;99.90;;;;;;5071326;28;20489;-54
2023/08/02 11:40:10;;;;;;;1.92;1.02;;;20.60;99.90;;;;;;5072205;28;20036;-51
2023/08/02 11:42:50;;;;;;;1.30;0.60;;;20.70;99.90;;;;;;5072186;28;20040;-53
2023/08/02 11:45:33;;;;;;;3.38;1.05;;;20.60;99.90;;;;;;5072287;28;20124;-53
2023/08/02 11:47:59;;;;;;;1.40;0.70;;;20.40;99.90;;;;;;5072463;28;20029;-52
2023/08/02 11:50:26;;;;;;;3.33;0.80;;;20.30;99.90;;;;;;5072337;28;20115;-53
2023/08/02 11:53:01;;;;;;;0.90;0.55;;;20.30;99.90;;;;;;5072134;28;20028;-53
2023/08/02 11:55:27;;;;;;;3.50;1.20;;;20.10;99.90;;;;;;5072165;28;20061;-51
2023/08/02 11:57:53;;;;;;;4.85;1.60;;;20.00;99.90;;;;;;5072319;28;20024;-51
2023/08/02 12:00:19;;;;;;;3.78;1.55;;;20.00;99.90;;;;;;5070208;28;20032;-53
2023/08/02 12:02:46;;;;;;;4.03;1.30;;;19.90;99.90;;;;;;5070883;28;20195;-52
2023/08/02 12:05:19;;;;;;;2.42;1.13;;;19.60;99.90;;;;;;5070993;28;20040;-53
2023/08/02 12:07:45;;;;;;;2.97;1.85;;;19.60;99.90;;;;;;5071307;28;20382;-53
2023/08/02 12:10:25;;;;;;;3.42;1.75;;;19.60;99.90;;;;;;5070855;28;20051;-54
2023/08/02 12:12:50;;;;;;;1.15;0.73;;;19.80;99.90;;;;;;5071181;28;20028;-52
2023/08/02 12:15:18;;;;;;;1.20;0.65;;;19.90;99.90;;;;;;5069405;28;20500;-53
2023/08/02 12:17:44;;;;;;;1.15;0.60;;;20.00;99.90;;;;;;5071154;28;20040;-53
2023/08/02 12:20:28;;;;;;;3.67;1.33;;;20.00;99.90;;;;;;5071035;28;20033;-54
2023/08/02 12:22:54;;;;;;;1.65;0.90;;;20.00;99.90;;;;;;5070735;28;20107;-52
2023/08/02 12:25:20;;;;;;;2.30;0.73;;;20.00;99.90;;;;;;5070649;28;20572;-52
2023/08/02 12:28:05;;;;;;;4.47;2.05;;;20.10;99.90;;;;;;5070605;28;20037;-54
2023/08/02 12:30:31;;;;;;;4.30;1.40;;;20.10;99.90;;;;;;5070631;28;20035;-54
2023/08/02 12:32:57;;;;;;;6.13;2.78;;;20.20;99.90;;;;;;5070391;28;20029;-50
2023/08/02 12:35:23;;;;;;;2.78;1.73;;;20.20;99.90;;;;;;5070446;28;20024;-52
2023/08/02 12:37:51;;;;;;;1.40;0.73;;;20.30;99.90;;;;;;5071447;28;20097;-50
2023/08/02 12:40:16;;;;;;;2.10;1.02;;;20.30;99.90;;;;;;5070857;28;20071;-50
2023/08/02 12:42:42;;;;;;;3.60;1.40;;;20.40;99.90;;;;;;5070908;28;20048;-53
2023/08/02 12:45:08;;;;;;;2.65;1.02;;;20.50;99.90;;;;;;5068848;28;20037;-53
2023/08/02 12:47:33;;;;;;;1.50;0.77;;;20.50;99.90;;;;;;5070146;28;20059;-50
2023/08/02 12:49:59;;;;;;;1.50;0.63;;;20.30;99.90;;;;;;5069743;28;20028;-50